sensor_id;sensor_type;location;lat;lon;timestamp;P1;durP1;ratioP1;P2;durP2;ratioP2
5209;SDS011;2624;48.048;11.706;2022-09-03T00:04:07;0.90;;;0.90;;
5209;SDS011;2624;48.048;11.706;2022-09-03T00:09:18;1.10;;;1.10;;
5209;SDS011;2624;48.048;11.706;2022-09-03T00:14:25;4.10;;;1.13;;
5209;SDS011;2624;48.048;11.706;2022-09-03T00:19:36;1.23;;;1.13;;
5209;SDS011;2624;48.048;11.706;2022-09-03T00:24:43;0.90;;;0.90;;
5209;SDS011;2624;48.048;11.706;2022-09-03T00:29:48;8.93;;;1.10;;
5209;SDS011;2624;48.048;11.706;2022-09-03T00:34:55;1.00;;;1.00;;
5209;SDS011;2624;48.048;11.706;2022-09-03T00:40:01;0.63;;;0.63;;
5209;SDS011;2624;48.048;11.706;2022-09-03T00:45:12;0.80;;;0.80;;
5209;SDS011;2624;48.048;11.706;2022-09-03T00:50:27;2.07;;;1.00;;
5209;SDS011;2624;48.048;11.706;2022-09-03T00:55:41;2.93;;;0.90;;
5209;SDS011;2624;48.048;11.706;2022-09-03T01:00:50;1.30;;;1.20;;
5209;SDS011;2624;48.048;11.706;2022-09-03T01:06:00;1.13;;;1.10;;
5209;SDS011;2624;48.048;11.706;2022-09-03T01:11:14;0.97;;;0.97;;
5209;SDS011;2624;48.048;11.706;2022-09-03T01:16:26;1.83;;;1.03;;
5209;SDS011;2624;48.048;11.706;2022-09-03T01:27:10;1.20;;;1.20;;
5209;SDS011;2624;48.048;11.706;2022-09-03T01:32:29;2.53;;;1.47;;
5209;SDS011;2624;48.048;11.706;2022-09-03T01:37:43;1.30;;;1.20;;
5209;SDS011;2624;48.048;11.706;2022-09-03T01:42:58;1.30;;;1.20;;
5209;SDS011;2624;48.048;11.706;2022-09-03T01:48:12;0.83;;;0.83;;
5209;SDS011;2624;48.048;11.706;2022-09-03T01:53:32;7.30;;;0.83;;
5209;SDS011;2624;48.048;11.706;2022-09-03T01:58:41;1.83;;;1.13;;
5209;SDS011;2624;48.048;11.706;2022-09-03T02:03:48;1.10;;;1.10;;
5209;SDS011;2624;48.048;11.706;2022-09-03T02:08:51;0.97;;;0.97;;
5209;SDS011;2624;48.048;11.706;2022-09-03T02:13:53;0.87;;;0.87;;
5209;SDS011;2624;48.048;11.706;2022-09-03T02:19:00;1.17;;;0.93;;
5209;SDS011;2624;48.048;11.706;2022-09-03T02:24:06;1.10;;;1.00;;
5209;SDS011;2624;48.048;11.706;2022-09-03T02:29:08;1.00;;;0.90;;
5209;SDS011;2624;48.048;11.706;2022-09-03T02:34:12;3.07;;;1.00;;
5209;SDS011;2624;48.048;11.706;2022-09-03T02:39:14;1.37;;;1.13;;
5209;SDS011;2624;48.048;11.706;2022-09-03T02:44:17;1.23;;;1.13;;
5209;SDS011;2624;48.048;11.706;2022-09-03T02:49:27;1.17;;;1.17;;
5209;SDS011;2624;48.048;11.706;2022-09-03T02:54:29;1.30;;;1.20;;
5209;SDS011;2624;48.048;11.706;2022-09-03T02:59:32;1.23;;;1.00;;
5209;SDS011;2624;48.048;11.706;2022-09-03T03:04:35;1.30;;;1.30;;
5209;SDS011;2624;48.048;11.706;2022-09-03T03:09:38;1.10;;;1.03;;
5209;SDS011;2624;48.048;11.706;2022-09-03T03:14:39;1.00;;;1.00;;
5209;SDS011;2624;48.048;11.706;2022-09-03T03:19:42;1.40;;;1.30;;
5209;SDS011;2624;48.048;11.706;2022-09-03T03:24:44;1.00;;;1.00;;
5209;SDS011;2624;48.048;11.706;2022-09-03T03:29:46;1.07;;;0.97;;
5209;SDS011;2624;48.048;11.706;2022-09-03T03:34:49;1.60;;;1.10;;
5209;SDS011;2624;48.048;11.706;2022-09-03T03:39:51;0.90;;;0.90;;
5209;SDS011;2624;48.048;11.706;2022-09-03T03:44:52;1.00;;;1.00;;
5209;SDS011;2624;48.048;11.706;2022-09-03T03:49:56;2.20;;;1.10;;
5209;SDS011;2624;48.048;11.706;2022-09-03T03:54:58;4.50;;;1.77;;
5209;SDS011;2624;48.048;11.706;2022-09-03T03:59:59;1.20;;;1.20;;
5209;SDS011;2624;48.048;11.706;2022-09-03T04:05:03;1.40;;;1.40;;
5209;SDS011;2624;48.048;11.706;2022-09-03T04:10:06;0.90;;;0.90;;
5209;SDS011;2624;48.048;11.706;2022-09-03T04:15:09;1.23;;;1.13;;
5209;SDS011;2624;48.048;11.706;2022-09-03T04:20:12;6.87;;;1.07;;
5209;SDS011;2624;48.048;11.706;2022-09-03T04:25:14;2.00;;;1.20;;
5209;SDS011;2624;48.048;11.706;2022-09-03T04:30:16;1.10;;;1.10;;
5209;SDS011;2624;48.048;11.706;2022-09-03T04:35:19;8.50;;;1.27;;
5209;SDS011;2624;48.048;11.706;2022-09-03T04:40:22;1.80;;;1.17;;
5209;SDS011;2624;48.048;11.706;2022-09-03T04:45:23;1.30;;;1.20;;
5209;SDS011;2624;48.048;11.706;2022-09-03T04:50:28;1.33;;;1.33;;
5209;SDS011;2624;48.048;11.706;2022-09-03T04:55:32;1.80;;;1.70;;
5209;SDS011;2624;48.048;11.706;2022-09-03T05:00:35;1.37;;;1.37;;
5209;SDS011;2624;48.048;11.706;2022-09-03T05:05:38;1.10;;;1.10;;
5209;SDS011;2624;48.048;11.706;2022-09-03T05:10:40;1.00;;;1.00;;
5209;SDS011;2624;48.048;11.706;2022-09-03T05:15:42;1.27;;;0.93;;
5209;SDS011;2624;48.048;11.706;2022-09-03T05:20:45;1.23;;;1.23;;
5209;SDS011;2624;48.048;11.706;2022-09-03T05:25:53;1.70;;;1.60;;
5209;SDS011;2624;48.048;11.706;2022-09-03T05:30:59;8.80;;;1.50;;
5209;SDS011;2624;48.048;11.706;2022-09-03T05:36:03;1.67;;;1.60;;
5209;SDS011;2624;48.048;11.706;2022-09-03T05:41:06;1.33;;;1.23;;
5209;SDS011;2624;48.048;11.706;2022-09-03T05:46:10;3.63;;;1.20;;
5209;SDS011;2624;48.048;11.706;2022-09-03T05:51:15;2.30;;;1.63;;
5209;SDS011;2624;48.048;11.706;2022-09-03T05:56:18;1.43;;;1.43;;
5209;SDS011;2624;48.048;11.706;2022-09-03T06:01:22;2.30;;;1.60;;
5209;SDS011;2624;48.048;11.706;2022-09-03T06:06:28;2.07;;;1.97;;
5209;SDS011;2624;48.048;11.706;2022-09-03T06:11:31;1.87;;;1.77;;
5209;SDS011;2624;48.048;11.706;2022-09-03T06:16:35;1.97;;;1.87;;
5209;SDS011;2624;48.048;11.706;2022-09-03T06:21:40;2.30;;;2.20;;
5209;SDS011;2624;48.048;11.706;2022-09-03T06:26:43;2.60;;;2.50;;
5209;SDS011;2624;48.048;11.706;2022-09-03T06:31:45;2.73;;;2.50;;
5209;SDS011;2624;48.048;11.706;2022-09-03T06:36:51;2.30;;;2.20;;
5209;SDS011;2624;48.048;11.706;2022-09-03T06:41:52;5.70;;;2.27;;
5209;SDS011;2624;48.048;11.706;2022-09-03T06:46:54;3.37;;;2.10;;
5209;SDS011;2624;48.048;11.706;2022-09-03T06:52:01;2.30;;;2.10;;
5209;SDS011;2624;48.048;11.706;2022-09-03T06:57:03;1.80;;;1.70;;
5209;SDS011;2624;48.048;11.706;2022-09-03T07:02:05;1.80;;;1.70;;
5209;SDS011;2624;48.048;11.706;2022-09-03T07:07:08;4.30;;;2.07;;
5209;SDS011;2624;48.048;11.706;2022-09-03T07:12:12;3.07;;;2.10;;
5209;SDS011;2624;48.048;11.706;2022-09-03T07:17:15;1.40;;;1.40;;
5209;SDS011;2624;48.048;11.706;2022-09-03T07:22:18;1.90;;;1.40;;
5209;SDS011;2624;48.048;11.706;2022-09-03T07:27:20;3.53;;;1.87;;
5209;SDS011;2624;48.048;11.706;2022-09-03T07:32:23;2.43;;;2.33;;
5209;SDS011;2624;48.048;11.706;2022-09-03T07:37:26;2.20;;;2.00;;
5209;SDS011;2624;48.048;11.706;2022-09-03T07:42:27;2.20;;;2.10;;
5209;SDS011;2624;48.048;11.706;2022-09-03T07:47:30;1.90;;;1.63;;
5209;SDS011;2624;48.048;11.706;2022-09-03T07:52:34;2.20;;;2.10;;
5209;SDS011;2624;48.048;11.706;2022-09-03T07:57:37;1.60;;;1.60;;
5209;SDS011;2624;48.048;11.706;2022-09-03T08:02:38;1.90;;;1.80;;
5209;SDS011;2624;48.048;11.706;2022-09-03T08:07:41;1.73;;;1.60;;
5209;SDS011;2624;48.048;11.706;2022-09-03T08:12:43;3.27;;;2.70;;
5209;SDS011;2624;48.048;11.706;2022-09-03T08:17:45;2.30;;;2.20;;
5209;SDS011;2624;48.048;11.706;2022-09-03T08:22:48;3.90;;;2.07;;
5209;SDS011;2624;48.048;11.706;2022-09-03T08:27:50;3.70;;;2.70;;
5209;SDS011;2624;48.048;11.706;2022-09-03T08:32:52;3.93;;;2.00;;
5209;SDS011;2624;48.048;11.706;2022-09-03T08:37:55;2.83;;;2.63;;
5209;SDS011;2624;48.048;11.706;2022-09-03T08:43:03;2.10;;;2.10;;
5209;SDS011;2624;48.048;11.706;2022-09-03T08:48:13;4.30;;;2.50;;
5209;SDS011;2624;48.048;11.706;2022-09-03T08:53:23;2.90;;;2.60;;
5209;SDS011;2624;48.048;11.706;2022-09-03T08:58:29;2.93;;;2.73;;
5209;SDS011;2624;48.048;11.706;2022-09-03T09:03:36;8.10;;;3.20;;
5209;SDS011;2624;48.048;11.706;2022-09-03T09:08:47;9.23;;;3.23;;
5209;SDS011;2624;48.048;11.706;2022-09-03T09:13:58;3.03;;;2.73;;
5209;SDS011;2624;48.048;11.706;2022-09-03T09:19:06;2.53;;;2.43;;
5209;SDS011;2624;48.048;11.706;2022-09-03T09:24:22;3.00;;;2.80;;
5209;SDS011;2624;48.048;11.706;2022-09-03T09:29:26;2.50;;;2.40;;
5209;SDS011;2624;48.048;11.706;2022-09-03T09:34:33;2.93;;;2.83;;
5209;SDS011;2624;48.048;11.706;2022-09-03T09:39:37;2.27;;;2.13;;
5209;SDS011;2624;48.048;11.706;2022-09-03T09:44:41;2.50;;;2.30;;
5209;SDS011;2624;48.048;11.706;2022-09-03T09:49:50;2.37;;;2.27;;
5209;SDS011;2624;48.048;11.706;2022-09-03T09:55:06;2.20;;;2.03;;
5209;SDS011;2624;48.048;11.706;2022-09-03T10:00:10;1.83;;;1.73;;
5209;SDS011;2624;48.048;11.706;2022-09-03T10:05:14;1.80;;;1.70;;
5209;SDS011;2624;48.048;11.706;2022-09-03T10:10:22;1.43;;;1.40;;
5209;SDS011;2624;48.048;11.706;2022-09-03T10:15:27;4.17;;;1.50;;
5209;SDS011;2624;48.048;11.706;2022-09-03T10:20:34;2.17;;;1.90;;
5209;SDS011;2624;48.048;11.706;2022-09-03T10:25:53;1.60;;;1.60;;
5209;SDS011;2624;48.048;11.706;2022-09-03T10:31:15;1.60;;;1.50;;
5209;SDS011;2624;48.048;11.706;2022-09-03T10:36:39;1.50;;;1.40;;
5209;SDS011;2624;48.048;11.706;2022-09-03T10:41:51;6.53;;;1.83;;
5209;SDS011;2624;48.048;11.706;2022-09-03T10:47:10;1.30;;;1.30;;
5209;SDS011;2624;48.048;11.706;2022-09-03T10:52:26;1.50;;;1.40;;
5209;SDS011;2624;48.048;11.706;2022-09-03T10:57:36;1.47;;;1.47;;
5209;SDS011;2624;48.048;11.706;2022-09-03T11:02:51;1.23;;;1.23;;
5209;SDS011;2624;48.048;11.706;2022-09-03T11:08:18;1.30;;;1.30;;
5209;SDS011;2624;48.048;11.706;2022-09-03T11:13:26;1.90;;;1.80;;
5209;SDS011;2624;48.048;11.706;2022-09-03T11:18:35;1.57;;;1.47;;
5209;SDS011;2624;48.048;11.706;2022-09-03T11:23:43;1.97;;;1.90;;
5209;SDS011;2624;48.048;11.706;2022-09-03T11:28:50;1.57;;;1.20;;
5209;SDS011;2624;48.048;11.706;2022-09-03T11:33:59;2.93;;;1.40;;
5209;SDS011;2624;48.048;11.706;2022-09-03T11:39:12;1.17;;;1.17;;
5209;SDS011;2624;48.048;11.706;2022-09-03T11:44:20;1.20;;;1.20;;
5209;SDS011;2624;48.048;11.706;2022-09-03T11:49:26;1.40;;;1.40;;
5209;SDS011;2624;48.048;11.706;2022-09-03T11:54:30;1.40;;;1.30;;
5209;SDS011;2624;48.048;11.706;2022-09-03T11:59:34;1.33;;;1.23;;
5209;SDS011;2624;48.048;11.706;2022-09-03T12:04:38;1.30;;;1.30;;
5209;SDS011;2624;48.048;11.706;2022-09-03T12:10:00;1.40;;;1.40;;
5209;SDS011;2624;48.048;11.706;2022-09-03T12:15:24;1.00;;;1.00;;
5209;SDS011;2624;48.048;11.706;2022-09-03T12:20:37;1.00;;;1.00;;
5209;SDS011;2624;48.048;11.706;2022-09-03T12:25:42;1.50;;;1.40;;
5209;SDS011;2624;48.048;11.706;2022-09-03T12:30:47;1.80;;;1.27;;
5209;SDS011;2624;48.048;11.706;2022-09-03T12:35:55;0.90;;;0.90;;
5209;SDS011;2624;48.048;11.706;2022-09-03T12:40:57;1.10;;;1.10;;
5209;SDS011;2624;48.048;11.706;2022-09-03T12:46:00;1.63;;;1.50;;
5209;SDS011;2624;48.048;11.706;2022-09-03T12:51:02;3.70;;;1.23;;
5209;SDS011;2624;48.048;11.706;2022-09-03T12:56:04;1.50;;;1.20;;
5209;SDS011;2624;48.048;11.706;2022-09-03T13:01:10;1.50;;;1.40;;
5209;SDS011;2624;48.048;11.706;2022-09-03T13:06:16;1.33;;;1.33;;
5209;SDS011;2624;48.048;11.706;2022-09-03T13:11:21;1.20;;;1.10;;
5209;SDS011;2624;48.048;11.706;2022-09-03T13:16:32;1.40;;;1.40;;
5209;SDS011;2624;48.048;11.706;2022-09-03T13:21:53;1.03;;;1.03;;
5209;SDS011;2624;48.048;11.706;2022-09-03T13:27:02;1.00;;;1.00;;
5209;SDS011;2624;48.048;11.706;2022-09-03T13:32:16;1.30;;;1.20;;
5209;SDS011;2624;48.048;11.706;2022-09-03T13:37:27;1.50;;;1.40;;
5209;SDS011;2624;48.048;11.706;2022-09-03T13:42:36;1.20;;;1.20;;
5209;SDS011;2624;48.048;11.706;2022-09-03T13:47:43;1.27;;;1.27;;
5209;SDS011;2624;48.048;11.706;2022-09-03T13:53:21;1.40;;;1.40;;
5209;SDS011;2624;48.048;11.706;2022-09-03T13:58:34;9.50;;;1.40;;
5209;SDS011;2624;48.048;11.706;2022-09-03T14:03:45;1.27;;;1.27;;
5209;SDS011;2624;48.048;11.706;2022-09-03T14:08:55;1.10;;;1.10;;
5209;SDS011;2624;48.048;11.706;2022-09-03T14:14:11;1.70;;;1.70;;
5209;SDS011;2624;48.048;11.706;2022-09-03T14:19:20;1.53;;;1.50;;
5209;SDS011;2624;48.048;11.706;2022-09-03T14:24:35;1.50;;;1.50;;
5209;SDS011;2624;48.048;11.706;2022-09-03T14:29:49;3.63;;;1.27;;
5209;SDS011;2624;48.048;11.706;2022-09-03T14:35:07;1.73;;;1.40;;
5209;SDS011;2624;48.048;11.706;2022-09-03T14:40:21;0.90;;;0.90;;
5209;SDS011;2624;48.048;11.706;2022-09-03T14:45:51;6.00;;;0.80;;
5209;SDS011;2624;48.048;11.706;2022-09-03T14:51:31;5.57;;;1.17;;
5209;SDS011;2624;48.048;11.706;2022-09-03T14:56:44;1.33;;;1.10;;
5209;SDS011;2624;48.048;11.706;2022-09-03T15:02:03;15.67;;;1.37;;
5209;SDS011;2624;48.048;11.706;2022-09-03T15:07:34;2.00;;;1.13;;
5209;SDS011;2624;48.048;11.706;2022-09-03T15:12:42;1.13;;;0.80;;
5209;SDS011;2624;48.048;11.706;2022-09-03T15:17:54;2.43;;;1.10;;
5209;SDS011;2624;48.048;11.706;2022-09-03T15:28:33;1.37;;;1.00;;
5209;SDS011;2624;48.048;11.706;2022-09-03T15:33:43;2.07;;;0.90;;
5209;SDS011;2624;48.048;11.706;2022-09-03T15:38:53;4.40;;;0.87;;
5209;SDS011;2624;48.048;11.706;2022-09-03T15:44:00;1.47;;;1.23;;
5209;SDS011;2624;48.048;11.706;2022-09-03T15:49:06;0.90;;;0.77;;
5209;SDS011;2624;48.048;11.706;2022-09-03T15:54:20;3.60;;;1.10;;
5209;SDS011;2624;48.048;11.706;2022-09-03T15:59:34;3.77;;;1.13;;
5209;SDS011;2624;48.048;11.706;2022-09-03T16:04:54;1.50;;;0.80;;
5209;SDS011;2624;48.048;11.706;2022-09-03T16:10:08;1.27;;;1.10;;
5209;SDS011;2624;48.048;11.706;2022-09-03T16:15:14;8.30;;;2.37;;
5209;SDS011;2624;48.048;11.706;2022-09-03T16:20:20;4.20;;;2.20;;
5209;SDS011;2624;48.048;11.706;2022-09-03T16:25:28;3.73;;;1.90;;
5209;SDS011;2624;48.048;11.706;2022-09-03T16:30:35;4.27;;;1.00;;
5209;SDS011;2624;48.048;11.706;2022-09-03T16:35:54;0.83;;;0.83;;
5209;SDS011;2624;48.048;11.706;2022-09-03T16:41:09;15.77;;;1.37;;
5209;SDS011;2624;48.048;11.706;2022-09-03T16:46:21;0.90;;;0.90;;
5209;SDS011;2624;48.048;11.706;2022-09-03T16:51:26;0.77;;;0.77;;
5209;SDS011;2624;48.048;11.706;2022-09-03T16:56:45;3.60;;;0.80;;
5209;SDS011;2624;48.048;11.706;2022-09-03T17:01:58;2.07;;;1.20;;
5209;SDS011;2624;48.048;11.706;2022-09-03T17:07:10;1.13;;;1.03;;
5209;SDS011;2624;48.048;11.706;2022-09-03T17:12:22;1.97;;;1.20;;
5209;SDS011;2624;48.048;11.706;2022-09-03T17:17:34;1.37;;;1.30;;
5209;SDS011;2624;48.048;11.706;2022-09-03T17:22:54;1.10;;;1.10;;
5209;SDS011;2624;48.048;11.706;2022-09-03T17:28:14;3.27;;;1.73;;
5209;SDS011;2624;48.048;11.706;2022-09-03T17:33:39;6.07;;;4.23;;
5209;SDS011;2624;48.048;11.706;2022-09-03T17:39:02;1.50;;;0.73;;
5209;SDS011;2624;48.048;11.706;2022-09-03T17:44:20;2.80;;;2.37;;
5209;SDS011;2624;48.048;11.706;2022-09-03T17:55:28;2.53;;;1.07;;
5209;SDS011;2624;48.048;11.706;2022-09-03T18:00:36;1.00;;;0.90;;
5209;SDS011;2624;48.048;11.706;2022-09-03T18:05:45;0.97;;;0.60;;
5209;SDS011;2624;48.048;11.706;2022-09-03T18:16:51;0.90;;;0.90;;
5209;SDS011;2624;48.048;11.706;2022-09-03T18:22:33;1.57;;;1.10;;
5209;SDS011;2624;48.048;11.706;2022-09-03T18:28:06;1.47;;;1.20;;
5209;SDS011;2624;48.048;11.706;2022-09-03T18:33:29;1.77;;;1.00;;
5209;SDS011;2624;48.048;11.706;2022-09-03T18:38:49;1.03;;;1.00;;
5209;SDS011;2624;48.048;11.706;2022-09-03T18:44:10;1.03;;;1.03;;
5209;SDS011;2624;48.048;11.706;2022-09-03T18:49:38;2.60;;;0.90;;
5209;SDS011;2624;48.048;11.706;2022-09-03T18:55:07;0.90;;;0.90;;
5209;SDS011;2624;48.048;11.706;2022-09-03T19:00:34;1.00;;;0.90;;
5209;SDS011;2624;48.048;11.706;2022-09-03T19:06:03;8.23;;;1.13;;
5209;SDS011;2624;48.048;11.706;2022-09-03T19:11:28;0.70;;;0.70;;
5209;SDS011;2624;48.048;11.706;2022-09-03T19:16:53;0.80;;;0.80;;
5209;SDS011;2624;48.048;11.706;2022-09-03T19:22:25;0.87;;;0.87;;
5209;SDS011;2624;48.048;11.706;2022-09-03T19:27:49;1.23;;;1.10;;
5209;SDS011;2624;48.048;11.706;2022-09-03T19:33:14;0.87;;;0.87;;
5209;SDS011;2624;48.048;11.706;2022-09-03T19:38:47;1.10;;;1.10;;
5209;SDS011;2624;48.048;11.706;2022-09-03T19:44:21;2.60;;;0.93;;
5209;SDS011;2624;48.048;11.706;2022-09-03T19:49:55;1.00;;;1.00;;
5209;SDS011;2624;48.048;11.706;2022-09-03T19:55:23;0.73;;;0.73;;
5209;SDS011;2624;48.048;11.706;2022-09-03T20:00:44;3.40;;;0.90;;
5209;SDS011;2624;48.048;11.706;2022-09-03T20:06:04;3.30;;;0.80;;
5209;SDS011;2624;48.048;11.706;2022-09-03T20:11:26;3.60;;;1.10;;
5209;SDS011;2624;48.048;11.706;2022-09-03T20:16:31;0.97;;;0.97;;
5209;SDS011;2624;48.048;11.706;2022-09-03T20:21:40;15.33;;;3.30;;
5209;SDS011;2624;48.048;11.706;2022-09-03T20:26:51;1.13;;;1.13;;
5209;SDS011;2624;48.048;11.706;2022-09-03T20:32:02;2.30;;;0.80;;
5209;SDS011;2624;48.048;11.706;2022-09-03T20:37:14;0.80;;;0.80;;
5209;SDS011;2624;48.048;11.706;2022-09-03T20:42:32;1.30;;;0.90;;
5209;SDS011;2624;48.048;11.706;2022-09-03T20:47:49;3.00;;;2.00;;
5209;SDS011;2624;48.048;11.706;2022-09-03T20:53:04;4.90;;;2.03;;
5209;SDS011;2624;48.048;11.706;2022-09-03T20:58:16;1.00;;;1.00;;
5209;SDS011;2624;48.048;11.706;2022-09-03T21:03:25;0.93;;;0.93;;
5209;SDS011;2624;48.048;11.706;2022-09-03T21:14:07;0.87;;;0.87;;
5209;SDS011;2624;48.048;11.706;2022-09-03T21:19:21;2.03;;;1.00;;
5209;SDS011;2624;48.048;11.706;2022-09-03T21:24:36;0.70;;;0.70;;
5209;SDS011;2624;48.048;11.706;2022-09-03T21:29:45;0.97;;;0.80;;
5209;SDS011;2624;48.048;11.706;2022-09-03T21:34:54;1.00;;;1.00;;
5209;SDS011;2624;48.048;11.706;2022-09-03T21:40:03;0.90;;;0.90;;
5209;SDS011;2624;48.048;11.706;2022-09-03T21:45:10;0.90;;;0.90;;
5209;SDS011;2624;48.048;11.706;2022-09-03T21:50:19;0.80;;;0.80;;
5209;SDS011;2624;48.048;11.706;2022-09-03T21:55:25;0.70;;;0.70;;
5209;SDS011;2624;48.048;11.706;2022-09-03T22:00:35;3.30;;;0.80;;
5209;SDS011;2624;48.048;11.706;2022-09-03T22:05:40;1.00;;;0.70;;
5209;SDS011;2624;48.048;11.706;2022-09-03T22:10:52;0.70;;;0.70;;
5209;SDS011;2624;48.048;11.706;2022-09-03T22:16:08;0.70;;;0.70;;
5209;SDS011;2624;48.048;11.706;2022-09-03T22:21:16;0.60;;;0.60;;
5209;SDS011;2624;48.048;11.706;2022-09-03T22:26:28;0.97;;;0.90;;
5209;SDS011;2624;48.048;11.706;2022-09-03T22:31:41;1.00;;;1.00;;
5209;SDS011;2624;48.048;11.706;2022-09-03T22:36:52;1.23;;;0.90;;
5209;SDS011;2624;48.048;11.706;2022-09-03T22:42:03;0.70;;;0.70;;
5209;SDS011;2624;48.048;11.706;2022-09-03T22:47:24;0.83;;;0.83;;
5209;SDS011;2624;48.048;11.706;2022-09-03T22:52:33;0.70;;;0.70;;
5209;SDS011;2624;48.048;11.706;2022-09-03T22:57:53;0.97;;;0.67;;
5209;SDS011;2624;48.048;11.706;2022-09-03T23:03:03;0.80;;;0.80;;
5209;SDS011;2624;48.048;11.706;2022-09-03T23:08:10;0.60;;;0.60;;
5209;SDS011;2624;48.048;11.706;2022-09-03T23:13:15;1.07;;;0.93;;
5209;SDS011;2624;48.048;11.706;2022-09-03T23:18:23;0.70;;;0.70;;
5209;SDS011;2624;48.048;11.706;2022-09-03T23:23:28;0.80;;;0.80;;
5209;SDS011;2624;48.048;11.706;2022-09-03T23:28:34;0.50;;;0.50;;
5209;SDS011;2624;48.048;11.706;2022-09-03T23:33:39;0.83;;;0.60;;
5209;SDS011;2624;48.048;11.706;2022-09-03T23:38:45;12.23;;;0.90;;
5209;SDS011;2624;48.048;11.706;2022-09-03T23:44:00;2.20;;;0.60;;
5209;SDS011;2624;48.048;11.706;2022-09-03T23:49:22;0.80;;;0.80;;
5209;SDS011;2624;48.048;11.706;2022-09-03T23:54:33;1.33;;;0.70;;
5209;SDS011;2624;48.048;11.706;2022-09-03T23:59:44;0.73;;;0.73;;
